Time;durP1;ratioP1;P1;durP2;ratioP2;P2;SDS_P1;SDS_P2;PMS_P1;PMS_P2;Temp;Humidity;BMP_temperature;BMP_pressure;BME280_temperature;BME280_humidity;BME280_pressure;Samples;Min_cycle;Max_cycle;Signal;HPM_P1;HPM_P2
2022/09/02 00:00:44;;;;;;;;;11.00;11.00;;;;;21.64;57.42;98970.84;5004270;28;45479;-58
2022/09/02 00:03:10;;;;;;;;;10.75;10.75;;;;;21.62;57.65;98962.06;5009698;28;45383;-58
2022/09/02 00:05:36;;;;;;;;;10.25;10.25;;;;;21.61;57.87;98967.59;5006756;28;45460;-58
2022/09/02 00:08:03;;;;;;;;;9.00;9.00;;;;;21.61;57.73;98955.03;5014399;28;45491;-58
2022/09/02 00:10:29;;;;;;;;;9.00;8.25;;;;;21.58;57.37;98950.78;5006184;28;45670;-58
2022/09/02 00:12:54;;;;;;;;;8.00;8.00;;;;;21.58;57.21;98955.28;5007172;28;45561;-58
2022/09/02 00:15:20;;;;;;;;;9.25;9.25;;;;;21.55;57.59;98948.34;5008240;28;45500;-58
2022/09/02 00:17:46;;;;;;;;;9.75;9.75;;;;;21.54;57.22;98945.81;5006773;28;45398;-58
2022/09/02 00:20:11;;;;;;;;;11.25;10.75;;;;;21.53;57.72;98944.97;5000995;28;45463;-58
2022/09/02 00:22:37;;;;;;;;;10.00;9.00;;;;;21.50;57.50;98944.38;5005817;28;45568;-58
2022/09/02 00:25:02;;;;;;;;;8.50;8.50;;;;;21.47;57.89;98945.47;5001213;28;46452;-58
2022/09/02 00:27:28;;;;;;;;;12.00;10.75;;;;;21.47;58.03;98945.47;5006669;28;45404;-58
2022/09/02 00:29:53;;;;;;;;;9.75;9.75;;;;;21.48;58.07;98947.19;5005653;28;45439;-58
2022/09/02 00:32:19;;;;;;;;;9.25;9.25;;;;;21.46;57.51;98942.94;4985353;28;45499;-58
2022/09/02 00:34:44;;;;;;;;;13.00;10.25;;;;;21.46;58.00;98940.25;5005062;28;46287;-58
2022/09/02 00:37:12;;;;;;;;;9.00;9.00;;;;;21.45;57.55;98935.91;5008173;28;45392;-58
2022/09/02 00:39:37;;;;;;;;;12.00;9.50;;;;;21.43;58.08;98941.41;5003688;28;45339;-58
2022/09/02 00:42:03;;;;;;;;;12.00;10.25;;;;;21.41;58.22;98940.69;5000967;28;45487;-58
2022/09/02 00:44:29;;;;;;;;;11.75;10.25;;;;;21.39;57.96;98945.31;5005155;28;45513;-58
2022/09/02 00:46:54;;;;;;;;;10.25;10.00;;;;;21.38;58.56;98945.44;5006257;28;45459;-58
2022/09/02 00:49:24;;;;;;;;;10.75;10.00;;;;;21.36;58.66;98939.38;5004591;28;45442;-58
2022/09/02 00:52:01;;;;;;;;;12.00;10.00;;;;;21.35;58.91;98945.72;5009224;28;45647;-59
2022/09/02 00:54:29;;;;;;;;;10.00;10.00;;;;;21.35;58.93;98933.16;5000535;28;46326;-59
2022/09/02 00:56:55;;;;;;;;;9.25;9.25;;;;;21.32;59.11;98932.56;5011230;28;45498;-59
2022/09/02 00:59:42;;;;;;;;;11.75;11.25;;;;;21.31;58.64;98930.88;5007839;28;45435;-59
2022/09/02 01:02:08;;;;;;;;;15.00;12.75;;;;;21.30;58.87;98932.69;5001319;28;45632;-59
2022/09/02 01:04:34;;;;;;;;;13.50;12.50;;;;;21.29;59.32;98931.00;5008897;28;46073;-59
2022/09/02 01:06:59;;;;;;;;;11.25;11.00;;;;;21.29;59.52;98925.63;5002407;28;45509;-59
2022/09/02 01:09:25;;;;;;;;;12.50;12.50;;;;;21.30;59.26;98934.53;5010436;28;45308;-59
2022/09/02 01:11:51;;;;;;;;;11.25;11.25;;;;;21.30;59.08;98934.53;5003933;28;45471;-59
2022/09/02 01:14:17;;;;;;;;;11.75;11.75;;;;;21.30;59.26;98938.06;5005086;28;45518;-58
2022/09/02 01:16:46;;;;;;;;;11.75;10.25;;;;;21.30;58.95;98931.84;5007316;28;45458;-58
2022/09/02 01:19:21;;;;;;;;;11.50;11.50;;;;;21.29;59.09;98932.81;5004455;28;45375;-58
2022/09/02 01:21:52;;;;;;;;;11.75;10.25;;;;;21.29;59.26;98930.16;5008217;28;45430;-58
2022/09/02 01:24:21;;;;;;;;;13.00;11.50;;;;;21.28;59.62;98931.16;5010389;28;46059;-59
2022/09/02 01:26:47;;;;;;;;;11.75;11.50;;;;;21.27;59.58;98935.66;5002739;28;45454;-59
2022/09/02 01:29:15;;;;;;;;;8.00;7.00;;;;;21.27;58.93;98934.81;5005075;28;45468;-59
2022/09/02 01:31:40;;;;;;;;;7.75;7.25;;;;;21.28;59.22;98944.56;5004209;28;45434;-59
2022/09/02 01:34:06;;;;;;;;;9.75;9.75;;;;;21.27;59.43;98938.34;5004106;28;46270;-59
2022/09/02 01:36:36;;;;;;;;;10.75;10.25;;;;;21.26;59.22;98943.84;5005081;28;45424;-59
2022/09/02 01:39:01;;;;;;;;;10.25;10.25;;;;;21.26;59.62;98944.69;5004812;28;45403;-59
2022/09/02 01:41:26;;;;;;;;;9.50;8.75;;;;;21.27;59.42;98948.22;4998788;28;45359;-58
2022/09/02 01:43:52;;;;;;;;;10.25;8.75;;;;;21.27;58.77;98942.88;5006722;28;46407;-59
2022/09/02 01:46:17;;;;;;;;;9.00;8.00;;;;;21.26;59.46;98946.53;5006122;28;45430;-61
2022/09/02 01:48:43;;;;;;;;;15.00;13.00;;;;;21.23;58.82;98947.63;5010176;28;45387;-58
2022/09/02 01:51:16;;;;;;;;;12.00;11.00;;;;;21.22;58.69;98938.75;5000388;28;45644;-58
2022/09/02 01:53:42;;;;;;;;;10.75;10.00;;;;;21.19;58.87;98938.13;5012028;28;45595;-59
2022/09/02 01:56:07;;;;;;;;;10.00;10.00;;;;;21.16;58.85;98936.56;5005437;28;45448;-59
2022/09/02 01:58:33;;;;;;;;;9.75;9.75;;;;;21.13;59.02;98944.84;5011771;28;45442;-58
2022/09/02 02:00:58;;;;;;;;;12.00;11.00;;;;;21.11;59.04;98941.47;5005318;28;45345;-59
2022/09/02 02:03:24;;;;;;;;;10.75;10.00;;;;;21.09;58.84;98950.63;4987757;28;45752;-59
2022/09/02 02:05:50;;;;;;;;;11.25;10.25;;;;;21.07;58.81;98947.22;5007200;28;45410;-59
2022/09/02 02:08:15;;;;;;;;;9.75;9.50;;;;;21.05;59.20;98944.69;5011610;28;45637;-59
2022/09/02 02:10:41;;;;;;;;;11.25;10.75;;;;;21.03;58.82;98941.28;5012209;28;45381;-59
2022/09/02 02:13:07;;;;;;;;;11.00;11.00;;;;;21.02;58.80;98949.44;5006372;28;46630;-59
2022/09/02 02:15:36;;;;;;;;;13.75;11.25;;;;;20.98;59.43;98946.16;5002053;28;45463;-59
2022/09/02 02:18:02;;;;;;;;;15.75;14.50;;;;;20.97;59.12;98947.16;5007629;28;45565;-59
2022/09/02 02:20:28;;;;;;;;;9.50;7.75;;;;;20.95;59.33;98946.44;5005953;28;45506;-59
2022/09/02 02:22:53;;;;;;;;;15.00;14.00;;;;;20.94;59.54;98949.28;5007928;28;46136;-59
2022/09/02 02:25:18;;;;;;;;;15.25;15.00;;;;;20.91;60.03;98947.69;5006947;28;45487;-59
2022/09/02 02:27:44;;;;;;;;;18.25;15.00;;;;;20.89;59.49;98949.66;5001285;28;45432;-59
2022/09/02 02:30:13;;;;;;;;;13.25;12.75;;;;;20.87;60.07;98954.28;5004833;28;45400;-59
2022/09/02 02:32:38;;;;;;;;;15.25;15.25;;;;;20.83;59.87;98959.06;5004165;28;45493;-59
2022/09/02 02:35:04;;;;;;;;;14.00;12.00;;;;;20.79;59.84;98954.06;5004447;28;45367;-59
2022/09/02 02:37:30;;;;;;;;;13.75;13.75;;;;;20.76;60.07;98949.00;5006741;28;45456;-59
2022/09/02 02:39:56;;;;;;;;;12.25;11.00;;;;;20.71;60.03;98944.03;5005112;28;45415;-59
2022/09/02 02:42:21;;;;;;;;;12.00;12.00;;;;;20.66;60.78;98946.22;5012536;28;46207;-59
2022/09/02 02:44:47;;;;;;;;;10.50;10.50;;;;;20.65;60.77;98949.03;5000394;28;45406;-60
2022/09/02 02:47:12;;;;;;;;;15.25;13.00;;;;;20.63;60.50;98945.63;5014321;28;45976;-59
2022/09/02 02:49:39;;;;;;;;;9.25;8.00;;;;;20.61;60.21;98939.56;5012073;28;45418;-58
2022/09/02 02:52:05;;;;;;;;;12.50;12.25;;;;;20.60;60.93;98938.72;5002626;28;45759;-59
2022/09/02 02:54:31;;;;;;;;;14.50;12.75;;;;;20.59;60.82;98938.84;5013295;28;45371;-58
2022/09/02 02:56:56;;;;;;;;;12.50;11.50;;;;;20.55;60.73;98932.91;5004432;28;45411;-59
2022/09/02 02:59:22;;;;;;;;;13.75;13.00;;;;;20.54;61.03;98936.56;5009861;28;45391;-59
2022/09/02 03:01:47;;;;;;;;;13.75;12.75;;;;;20.53;60.73;98940.22;5006179;28;46400;-59
2022/09/02 03:04:13;;;;;;;;;10.75;10.75;;;;;20.52;60.77;98943.88;5014418;28;45511;-59
2022/09/02 03:06:38;;;;;;;;;11.75;11.75;;;;;20.51;61.38;98940.34;5008700;28;46053;-58
2022/09/02 03:09:04;;;;;;;;;12.75;12.75;;;;;20.52;61.56;98938.50;5012975;28;45441;-57
2022/09/02 03:11:30;;;;;;;;;13.00;12.25;;;;;20.51;61.57;98937.66;5010096;28;46585;-58
2022/09/02 03:13:55;;;;;;;;;12.25;12.25;;;;;20.49;61.58;98934.25;5006342;28;45433;-58
2022/09/02 03:16:21;;;;;;;;;11.25;11.25;;;;;20.49;61.64;98930.72;5016490;28;45389;-58
2022/09/02 03:18:48;;;;;;;;;15.75;13.75;;;;;20.49;61.32;98936.09;5005920;28;45386;-58
2022/09/02 03:21:14;;;;;;;;;10.50;9.75;;;;;20.47;61.89;98941.56;5012203;28;45526;-58
2022/09/02 03:23:41;;;;;;;;;11.25;11.25;;;;;20.47;61.70;98946.06;5004753;28;45547;-58
2022/09/02 03:26:15;;;;;;;;;11.00;11.00;;;;;20.45;61.95;98943.50;5014144;28;45503;-59
2022/09/02 03:28:41;;;;;;;;;4.25;4.00;;;;;20.44;61.58;98941.81;4995591;28;45406;-58
2022/09/02 03:31:11;;;;;;;;;11.00;10.00;;;;;20.43;62.04;98939.28;5015641;28;45423;-59
2022/09/02 03:33:37;;;;;;;;;11.00;10.50;;;;;20.42;61.88;98940.25;5010611;28;45415;-59
2022/09/02 03:36:02;;;;;;;;;12.25;10.25;;;;;20.39;62.21;98948.56;4997753;28;45467;-58
2022/09/02 03:38:28;;;;;;;;;14.75;10.00;;;;;20.38;61.59;98942.34;5007242;28;45747;-58
2022/09/02 03:40:53;;;;;;;;;12.25;12.25;;;;;20.37;61.84;98948.69;4998938;28;45395;-59
2022/09/02 03:43:19;;;;;;;;;10.75;10.75;;;;;20.35;61.56;98947.91;5004822;28;45465;-59
2022/09/02 03:45:45;;;;;;;;;11.75;10.50;;;;;20.34;61.50;98943.53;5004003;28;45451;-60
2022/09/02 03:48:12;;;;;;;;;10.00;10.00;;;;;20.33;61.73;98952.53;5007207;28;45467;-60
2022/09/02 03:50:40;;;;;;;;;11.00;11.00;;;;;20.33;61.27;98952.53;4988596;28;48329;-60
2022/09/02 03:53:06;;;;;;;;;8.25;8.25;;;;;20.31;61.47;98956.31;5008394;28;45467;-59
2022/09/02 03:55:32;;;;;;;;;12.00;12.00;;;;;20.30;62.01;98958.16;5007381;28;45477;-59
2022/09/02 03:57:58;;;;;;;;;11.50;11.50;;;;;20.30;61.73;98962.66;5010856;28;45391;-59
2022/09/02 04:00:28;;;;;;;;;15.25;15.00;;;;;20.30;62.43;98960.81;5008124;28;45449;-59
2022/09/02 04:02:54;;;;;;;;;11.75;11.00;;;;;20.29;62.62;98959.13;4991823;28;45606;-58
2022/09/02 04:05:21;;;;;;;;;14.75;13.00;;;;;20.29;62.88;98961.78;5009648;28;45462;-58
2022/09/02 04:07:47;;;;;;;;;12.25;12.25;;;;;20.28;62.30;98956.56;5010045;28;45554;-58
2022/09/02 04:10:13;;;;;;;;;10.00;9.25;;;;;20.27;62.58;98954.91;5002075;28;46822;-58
2022/09/02 04:12:39;;;;;;;;;11.00;11.00;;;;;20.23;62.34;98945.41;5005725;28;45487;-58
2022/09/02 04:15:07;;;;;;;;;11.50;10.75;;;;;20.22;62.79;98949.91;5003525;28;45415;-58
2022/09/02 04:17:35;;;;;;;;;14.50;12.50;;;;;20.20;62.20;98943.81;5013762;28;45577;-58
2022/09/02 04:20:03;;;;;;;;;13.50;12.00;;;;;20.18;62.64;98943.94;5006876;28;45441;-58
2022/09/02 04:22:28;;;;;;;;;14.00;14.00;;;;;20.16;62.24;98943.22;5008538;28;45435;-58
2022/09/02 04:24:53;;;;;;;;;13.00;12.25;;;;;20.12;62.14;98941.78;5006050;28;45472;-58
2022/09/02 04:27:19;;;;;;;;;14.75;13.00;;;;;20.11;62.37;98947.25;5011048;28;45575;-58
2022/09/02 04:29:44;;;;;;;;;17.25;14.75;;;;;20.09;62.60;98941.19;5006031;28;45398;-58
2022/09/02 04:32:10;;;;;;;;;15.75;14.75;;;;;20.09;63.05;98952.75;5004538;28;45421;-58
2022/09/02 04:34:35;;;;;;;;;11.00;9.75;;;;;20.10;62.48;98958.97;5011823;28;45424;-59
2022/09/02 04:37:00;;;;;;;;;13.50;12.50;;;;;20.08;62.45;98950.19;5005484;28;45384;-63
2022/09/02 04:39:26;;;;;;;;;13.50;12.00;;;;;20.06;62.72;98957.50;5002679;28;47089;-58
2022/09/02 04:41:52;;;;;;;;;12.25;12.25;;;;;20.03;62.78;98958.59;5001355;28;45485;-59
2022/09/02 04:44:18;;;;;;;;;12.00;12.00;;;;;20.03;63.25;98949.72;4992700;28;45331;-59
2022/09/02 04:46:43;;;;;;;;;16.75;15.50;;;;;20.03;63.16;98949.72;4988971;28;45401;-60
2022/09/02 04:49:09;;;;;;;;;16.00;15.25;;;;;20.02;63.12;98946.19;4986091;28;46888;-60
2022/09/02 04:51:34;;;;;;;;;11.25;11.25;;;;;20.00;62.96;98947.28;4976861;28;45396;-60
2022/09/02 04:54:00;;;;;;;;;14.50;11.50;;;;;20.00;63.05;98952.63;4990511;28;45873;-60
2022/09/02 04:56:28;;;;;;;;;15.25;14.25;;;;;19.98;63.41;98949.22;4989101;28;45490;-59
2022/09/02 04:58:54;;;;;;;;;15.50;12.50;;;;;19.94;63.64;98951.28;4989888;28;45517;-58
2022/09/02 05:01:32;;;;;;;;;15.50;13.25;;;;;19.93;63.70;98948.78;4987504;28;45393;-58
2022/09/02 05:03:58;;;;;;;;;13.50;13.50;;;;;19.91;63.77;98954.25;4989121;28;45423;-62
2022/09/02 05:06:26;;;;;;;;;310.60;258.20;;;;;19.94;63.86;98953.16;4980389;28;45363;-58
2022/09/02 05:08:53;;;;;;;;;16.00;14.00;;;;;20.03;63.36;98960.41;4984110;28;45519;-61
2022/09/02 05:11:21;;;;;;;;;14.00;13.00;;;;;20.06;63.60;98952.16;4984092;28;45455;-65
2022/09/02 05:13:50;;;;;;;;;13.00;12.75;;;;;20.05;63.25;98951.28;4981340;28;45413;-62
2022/09/02 05:16:19;;;;;;;;;18.25;16.25;;;;;20.02;63.37;98943.50;4991894;28;45510;-62
2022/09/02 05:18:44;;;;;;;;;14.25;13.50;;;;;20.00;63.01;98949.97;4991588;28;46572;-61
2022/09/02 05:21:09;;;;;;;;;14.25;14.25;;;;;19.97;63.68;98947.53;4983773;28;45438;-61
2022/09/02 05:23:36;;;;;;;;;14.25;13.50;;;;;19.97;63.90;98947.53;4985037;28;45368;-61
2022/09/02 05:26:06;;;;;;;;;13.25;13.25;;;;;19.95;63.84;98953.00;4987846;28;45576;-61
2022/09/02 05:28:32;;;;;;;;;16.00;15.00;;;;;19.91;63.79;98943.53;4984068;28;45668;-62
2022/09/02 05:31:11;;;;;;;;;13.50;13.25;;;;;19.89;64.23;98950.00;4989409;28;45462;-61
2022/09/02 05:33:39;;;;;;;;;17.25;16.00;;;;;19.89;64.24;98944.63;4989289;28;45458;-62
2022/09/02 05:36:06;;;;;;;;;14.75;13.75;;;;;19.91;64.26;98932.00;4980814;28;45545;-60
2022/09/02 05:38:32;;;;;;;;;15.75;14.50;;;;;19.92;64.12;98939.91;5001898;28;45851;-59
2022/09/02 05:40:58;;;;;;;;;14.50;13.50;;;;;19.95;64.19;98936.94;4988443;28;45418;-59
2022/09/02 05:43:24;;;;;;;;;16.50;14.50;;;;;19.96;64.36;98935.13;4990541;28;45541;-60
2022/09/02 05:45:49;;;;;;;;;19.50;18.00;;;;;19.99;64.52;98943.75;5004455;28;45417;-60
2022/09/02 05:51:03;;;;;;;;;15.25;14.00;;;;;20.03;64.30;98937.19;5005697;28;45453;-59
2022/09/02 05:53:29;;;;;;;;;14.25;13.50;;;;;20.03;64.14;98937.19;5008527;28;45471;-59
2022/09/02 05:55:55;;;;;;;;;16.75;13.75;;;;;20.06;64.13;98936.09;5006740;28;45660;-59
2022/09/02 05:58:21;;;;;;;;;14.00;14.00;;;;;20.08;63.72;98939.50;5012517;28;45544;-59
2022/09/02 06:00:46;;;;;;;;;12.50;10.75;;;;;20.08;64.10;98945.69;5012464;28;45403;-59
2022/09/02 06:03:12;;;;;;;;;7.75;7.00;;;;;20.09;63.56;98950.06;5007777;28;45430;-59
2022/09/02 06:05:39;;;;;;;;;15.25;14.00;;;;;20.10;64.12;98943.75;5014946;28;45540;-59
2022/09/02 06:08:05;;;;;;;;;16.00;14.50;;;;;20.12;64.23;98943.59;5016140;28;46366;-59
2022/09/02 06:10:32;;;;;;;;;14.75;14.50;;;;;20.15;64.45;98946.03;5015945;28;45351;-59
2022/09/02 06:12:58;;;;;;;;;14.25;12.00;;;;;20.16;64.28;98945.06;5015167;28;45462;-59
2022/09/02 06:15:27;;;;;;;;;14.00;13.00;;;;;20.20;64.15;98943.81;5015854;28;45477;-59
2022/09/02 06:17:52;;;;;;;;;16.25;13.25;;;;;20.22;64.29;98944.56;5015924;28;45643;-59
2022/09/02 06:20:17;;;;;;;;;20.00;16.00;;;;;20.24;63.64;98947.97;5011790;28;45409;-59
2022/09/02 06:22:43;;;;;;;;;13.75;13.50;;;;;20.27;63.89;98949.53;5014183;28;45379;-59
2022/09/02 06:25:08;;;;;;;;;15.75;15.25;;;;;20.29;63.38;98947.56;5016137;28;45604;-60
2022/09/02 06:27:36;;;;;;;;;13.00;13.00;;;;;20.32;63.72;98945.47;5015811;28;46330;-59
2022/09/02 06:30:01;;;;;;;;;17.75;16.50;;;;;20.34;63.88;98946.22;5011957;28;45622;-62
2022/09/02 06:32:26;;;;;;;;;15.25;12.75;;;;;20.38;63.09;98944.16;4998087;28;45432;-59
2022/09/02 06:34:52;;;;;;;;;14.00;14.00;;;;;20.42;62.97;98949.16;5007663;28;45740;-59
2022/09/02 06:37:17;;;;;;;;;18.75;15.50;;;;;20.43;63.24;98942.81;5009793;28;45415;-59
2022/09/02 06:39:43;;;;;;;;;15.75;14.75;;;;;20.46;63.33;98942.53;5012903;28;45481;-59
2022/09/02 06:42:09;;;;;;;;;14.75;14.00;;;;;20.51;63.29;98944.84;5014761;28;45360;-60
2022/09/02 06:44:34;;;;;;;;;20.25;17.50;;;;;20.58;62.68;98946.03;5011785;28;45388;-60
2022/09/02 06:46:59;;;;;;;;;18.25;17.00;;;;;20.65;62.81;98947.22;5014407;28;46191;-60
2022/09/02 06:49:27;;;;;;;;;13.00;13.00;;;;;20.69;61.98;98943.28;5014956;28;45432;-59
2022/09/02 06:51:55;;;;;;;;;16.50;15.50;;;;;20.76;61.72;98949.84;5015349;28;45391;-63
2022/09/02 06:54:22;;;;;;;;;17.25;16.25;;;;;20.84;62.26;98942.00;5013414;28;45489;-60
2022/09/02 06:56:48;;;;;;;;;12.50;12.50;;;;;20.94;62.24;98947.44;5013373;28;46204;-61
2022/09/02 06:59:15;;;;;;;;;15.00;13.25;;;;;21.01;61.27;98945.91;5015130;28;45425;-62
2022/09/02 07:01:42;;;;;;;;;13.00;11.25;;;;;21.11;60.90;98944.16;5014603;28;45540;-62
2022/09/02 07:06:53;;;;;;;;;13.75;13.25;;;;;21.30;60.57;98943.44;5015454;28;45937;-61
2022/09/02 07:09:22;;;;;;;;;13.00;11.25;;;;;21.35;59.71;98935.84;5015763;28;45450;-61
2022/09/02 07:11:49;;;;;;;;;12.00;11.50;;;;;21.40;60.08;98928.25;5015048;28;45469;-61
2022/09/02 07:14:18;;;;;;;;;15.50;14.00;;;;;21.46;59.61;98926.84;5015509;28;45556;-61
2022/09/02 07:16:47;;;;;;;;;15.50;14.00;;;;;21.51;60.15;98930.81;5015928;28;45436;-61
2022/09/02 07:19:14;;;;;;;;;16.25;15.00;;;;;21.54;59.21;98927.88;5016123;28;45312;-62
2022/09/02 07:21:40;;;;;;;;;13.25;13.25;;;;;21.58;59.44;98929.31;5015655;28;45341;-62
2022/09/02 07:24:07;;;;;;;;;13.00;12.25;;;;;21.61;59.24;98930.03;5016127;28;45389;-61
2022/09/02 07:26:32;;;;;;;;;14.50;13.75;;;;;21.63;58.96;98931.56;5013755;28;48124;-62
2022/09/02 07:28:58;;;;;;;;;11.75;11.25;;;;;21.70;59.33;98926.53;5015518;28;45415;-61
2022/09/02 07:31:23;;;;;;;;;17.00;14.25;;;;;21.77;58.80;98919.63;5015384;28;45421;-61
2022/09/02 07:33:49;;;;;;;;;12.75;12.75;;;;;21.85;58.53;98917.09;5015723;28;45494;-62
2022/09/02 07:36:15;;;;;;;;;14.25;13.75;;;;;21.88;58.53;98923.03;5015674;28;46498;-61
2022/09/02 07:38:41;;;;;;;;;13.00;11.00;;;;;21.95;58.65;98921.50;5015228;28;45368;-61
2022/09/02 07:41:08;;;;;;;;;12.00;10.75;;;;;22.02;58.42;98924.53;5014412;28;45239;-61
2022/09/02 07:43:35;;;;;;;;;16.25;16.00;;;;;22.11;57.85;98920.16;5013936;28;46504;-61
2022/09/02 07:46:01;;;;;;;;;13.25;12.25;;;;;22.21;57.85;98921.00;5015543;28;46525;-62
2022/09/02 07:48:28;;;;;;;;;15.25;14.00;;;;;22.25;57.66;98923.28;5015345;28;45460;-62
2022/09/02 07:50:54;;;;;;;;;15.00;13.25;;;;;22.32;57.25;98925.41;5015366;28;45365;-61
2022/09/02 07:53:20;;;;;;;;;12.00;10.00;;;;;22.40;56.88;98920.19;5015149;28;45506;-62
2022/09/02 07:55:46;;;;;;;;;13.25;13.25;;;;;22.45;56.93;98915.25;5014423;28;46054;-62
2022/09/02 07:58:13;;;;;;;;;11.75;11.00;;;;;22.50;56.68;98924.56;5014360;28;45395;-62
2022/09/02 08:00:40;;;;;;;;;13.00;11.00;;;;;22.52;56.55;98929.78;5013935;28;45379;-62
2022/09/02 08:03:07;;;;;;;;;12.25;12.25;;;;;22.55;56.11;98938.44;5008777;28;45476;-61
2022/09/02 08:05:34;;;;;;;;;13.00;13.00;;;;;22.62;55.96;98925.28;5009444;28;45525;-61
2022/09/02 08:08:00;;;;;;;;;11.75;11.75;;;;;22.72;56.05;98915.38;5014343;28;45369;-61
2022/09/02 08:10:28;;;;;;;;;11.00;11.00;;;;;22.85;55.93;98924.00;4993375;28;45571;-61
2022/09/02 08:12:54;;;;;;;;;13.25;12.25;;;;;22.99;55.60;98925.38;5011469;28;45712;-61
2022/09/02 08:15:21;;;;;;;;;16.00;15.50;;;;;23.11;55.10;98923.41;5004831;28;46496;-63
2022/09/02 08:17:48;;;;;;;;;10.75;10.75;;;;;23.26;54.78;98925.47;5013713;28;45576;-60
2022/09/02 08:20:16;;;;;;;;;15.00;14.00;;;;;23.40;54.31;98923.31;5014287;28;45445;-61
2022/09/02 08:22:42;;;;;;;;;12.50;12.50;;;;;23.52;54.35;98932.91;5013891;28;45387;-61
2022/09/02 08:25:09;;;;;;;;;14.50;14.50;;;;;23.62;54.03;98918.44;5012349;28;46815;-61
2022/09/02 08:27:36;;;;;;;;;10.25;8.00;;;;;23.73;53.53;98917.38;5012951;28;45311;-61
2022/09/02 08:30:03;;;;;;;;;14.25;12.00;;;;;23.82;53.42;98915.63;4986751;28;45476;-61
2022/09/02 08:32:31;;;;;;;;;13.25;12.25;;;;;23.90;53.63;98916.56;4995630;28;45683;-61
2022/09/02 08:34:58;;;;;;;;;13.75;12.75;;;;;23.96;53.05;98917.81;5013712;28;46073;-61
2022/09/02 08:37:23;;;;;;;;;11.50;11.50;;;;;24.02;52.60;98920.75;5013787;28;45422;-61
2022/09/02 08:39:49;;;;;;;;;12.75;12.75;;;;;24.07;52.40;98912.22;5013542;28;45826;-61
2022/09/02 08:42:22;;;;;;;;;14.50;12.50;;;;;24.16;52.76;98913.13;5013160;28;45422;-61
2022/09/02 08:44:54;;;;;;;;;15.00;12.50;;;;;24.24;52.07;98913.28;5012382;28;46483;-61
2022/09/02 08:47:28;;;;;;;;;13.75;13.00;;;;;24.32;52.04;98918.72;4997952;28;45552;-61
2022/09/02 08:49:59;;;;;;;;;14.00;13.25;;;;;24.39;52.09;98913.56;5006085;28;45855;-61
2022/09/02 08:52:44;;;;;;;;;17.50;14.25;;;;;24.46;51.71;98906.59;5007754;28;45492;-61
2022/09/02 08:55:18;;;;;;;;;9.25;8.50;;;;;24.53;51.76;98911.19;5011528;28;45396;-59
2022/09/02 08:57:44;;;;;;;;;20.00;18.67;;;;;24.65;51.74;98901.00;5012466;28;45399;-63
2022/09/02 09:00:12;;;;;;;;;14.50;14.50;;;;;24.76;51.12;98899.94;5011082;28;45342;-60
2022/09/02 09:02:55;;;;;;;;;14.25;13.50;;;;;24.86;51.07;98900.66;5011380;28;45484;-62
2022/09/02 09:05:36;;;;;;;;;13.25;12.25;;;;;24.94;50.68;98895.38;5005113;28;47240;-62
2022/09/02 09:08:10;;;;;;;;;15.75;15.75;;;;;25.01;50.55;98893.72;5011975;28;45449;-62
2022/09/02 09:11:28;;;;;;;;;15.00;14.50;;;;;25.10;50.36;98892.78;5008645;28;45624;-61
2022/09/02 09:14:12;;;;;;;;;13.00;13.00;;;;;25.24;50.06;98896.75;4960397;28;45454;-63
2022/09/02 09:17:02;;;;;;;;;11.00;10.00;;;;;25.34;49.33;98902.84;5006326;28;45492;-62
2022/09/02 09:19:57;;;;;;;;;14.00;13.50;;;;;25.43;49.10;98909.16;5007509;28;45565;-63
2022/09/02 09:22:31;;;;;;;;;14.25;14.00;;;;;25.55;49.22;98907.88;5006748;28;45646;-63
2022/09/02 09:24:58;;;;;;;;;20.50;20.50;;;;;25.61;48.93;98904.53;5011052;28;45447;-59
2022/09/02 09:27:24;;;;;;;;;17.25;14.50;;;;;25.69;48.69;98894.63;4994676;28;47224;-61
2022/09/02 09:29:50;;;;;;;;;9.25;6.75;;;;;25.78;48.57;98900.91;5013342;28;45450;-59
2022/09/02 09:32:27;;;;;;;;;13.00;12.75;;;;;25.79;49.08;98899.06;5012394;28;45564;-63
2022/09/02 09:34:52;;;;;;;;;17.00;13.25;;;;;25.85;49.37;98898.41;5011355;28;45537;-60
2022/09/02 09:37:35;;;;;;;;;1251.75;984.00;;;;;25.94;49.30;98897.44;5012184;28;46215;-57
2022/09/02 09:40:21;;;;;;;;;21.50;19.50;;;;;26.00;48.61;98896.75;5014487;28;45481;-61
2022/09/02 09:42:49;;;;;;;;;17.00;15.00;;;;;26.03;48.57;98899.13;5015326;28;45532;-60
2022/09/02 09:45:24;;;;;;;;;15.25;15.25;;;;;25.99;48.09;98895.91;5016070;28;45476;-59
2022/09/02 09:48:18;;;;;;;;;13.00;12.25;;;;;26.00;46.79;98894.03;4989926;28;48152;-61
2022/09/02 09:51:04;;;;;;;;;13.00;12.00;;;;;25.97;47.03;98897.94;5015381;28;45460;-68
2022/09/02 09:53:32;;;;;;;;;14.50;13.00;;;;;25.90;46.72;98887.94;5014706;28;45518;-62
2022/09/02 09:56:04;;;;;;;;;13.50;12.50;;;;;25.84;47.27;98894.00;5012169;28;45400;-62
2022/09/02 09:58:38;;;;;;;;;16.25;14.00;;;;;25.85;47.39;98890.28;5014305;28;45490;-61
2022/09/02 10:01:12;;;;;;;;;14.00;14.00;;;;;25.89;47.67;98902.47;5015970;28;45394;-62
2022/09/02 10:03:48;;;;;;;;;13.25;13.25;;;;;25.88;46.55;98888.13;5004018;28;45788;-61
2022/09/02 10:06:29;;;;;;;;;11.00;11.00;;;;;25.84;46.03;98892.16;5013160;28;45471;-62
2022/09/02 10:08:57;;;;;;;;;11.25;10.75;;;;;25.82;45.59;98877.94;5015180;28;45603;-61
2022/09/02 10:11:35;;;;;;;;;10.75;10.50;;;;;25.78;46.06;98876.63;5015137;28;45399;-60
2022/09/02 10:14:10;;;;;;;;;14.50;14.25;;;;;25.68;44.76;98874.03;5015131;28;45411;-60
2022/09/02 10:17:14;;;;;;;;;13.50;12.50;;;;;25.62;45.38;98874.69;5015322;28;45543;-60
2022/09/02 10:19:58;;;;;;;;;11.00;11.00;;;;;25.63;45.55;98867.44;4977381;28;45696;-60
2022/09/02 10:22:39;;;;;;;;;10.75;10.75;;;;;25.71;45.87;98864.75;5008717;28;45466;-60
2022/09/02 10:25:20;;;;;;;;;14.25;12.50;;;;;25.77;45.54;98861.41;5011573;28;45550;-62
2022/09/02 10:28:27;;;;;;;;;15.75;14.00;;;;;25.85;45.27;98858.72;5001984;28;45436;-61
2022/09/02 10:31:15;;;;;;;;;11.75;10.25;;;;;25.95;44.93;98850.50;5013951;28;45478;-59
2022/09/02 10:34:03;;;;;;;;;11.50;11.50;;;;;26.05;44.86;98848.47;5015286;28;45539;-61
2022/09/02 10:36:39;;;;;;;;;10.50;9.00;;;;;26.15;44.69;98846.44;5013834;28;45458;-59
2022/09/02 10:39:17;;;;;;;;;330.80;261.20;;;;;26.23;44.36;98845.63;5011006;28;45477;-64
2022/09/02 10:41:45;;;;;;;;;13.00;10.75;;;;;26.29;44.45;98837.75;4996520;28;47311;-62
2022/09/02 10:44:26;;;;;;;;;9.75;9.75;;;;;26.31;44.52;98829.47;5015072;28;45480;-60
2022/09/02 10:47:00;;;;;;;;;14.25;13.00;;;;;26.38;44.50;98820.50;5003033;28;45536;-60
2022/09/02 10:49:34;;;;;;;;;15.75;13.25;;;;;26.50;44.51;98812.03;5015699;28;45458;-63
2022/09/02 10:52:08;;;;;;;;;10.00;10.00;;;;;26.59;44.43;98808.31;5015121;28;45442;-59
2022/09/02 10:54:51;;;;;;;;;12.00;11.75;;;;;26.64;44.18;98814.91;5014500;28;45403;-58
2022/09/02 10:57:20;;;;;;;;;12.75;12.75;;;;;26.61;44.06;98812.53;5015508;28;45462;-59
2022/09/02 10:59:45;;;;;;;;;8.00;7.75;;;;;26.57;44.37;98805.78;5015367;28;45331;-59
2022/09/02 11:02:20;;;;;;;;;12.00;11.00;;;;;26.50;44.45;98804.75;5015477;28;46404;-60
2022/09/02 11:04:49;;;;;;;;;12.75;12.75;;;;;26.45;45.18;98804.44;5013061;28;45353;-59
2022/09/02 11:07:25;;;;;;;;;14.25;14.25;;;;;26.39;45.32;98797.00;5006908;28;45487;-59
2022/09/02 11:10:14;;;;;;;;;10.25;10.25;;;;;26.38;45.32;98790.75;5014230;28;45472;-59
2022/09/02 11:12:55;;;;;;;;;13.25;12.00;;;;;26.40;46.80;98788.72;5013746;28;46225;-59
2022/09/02 11:15:38;;;;;;;;;13.75;13.25;;;;;26.20;48.72;98802.72;5012025;28;45426;-59
2022/09/02 11:18:07;;;;;;;;;13.25;12.25;;;;;25.85;49.96;98798.44;5015569;28;45407;-58
2022/09/02 11:20:42;;;;;;;;;15.50;14.75;;;;;25.45;52.70;98797.31;5014943;28;45272;-58
2022/09/02 11:23:17;;;;;;;;;20.00;15.50;;;;;25.12;54.77;98795.50;5014098;28;46087;-58
2022/09/02 11:25:54;;;;;;;;;12.00;10.00;;;;;24.84;55.21;98792.09;5014146;28;45494;-58
2022/09/02 11:28:32;;;;;;;;;12.50;12.50;;;;;24.59;54.62;98794.66;5014453;28;45422;-58
2022/09/02 11:31:15;;;;;;;;;10.00;10.00;;;;;24.50;55.28;98790.19;5013741;28;45615;-58
2022/09/02 11:34:42;;;;;;;;;11.25;11.00;;;;;24.46;55.82;98799.63;5008953;28;46601;-58